Time;durP1;ratioP1;P1;durP2;ratioP2;P2;SDS_P1;SDS_P2;PMS_P1;PMS_P2;Temp;Humidity;BMP_temperature;BMP_pressure;BME280_temperature;BME280_humidity;BME280_pressure;Samples;Min_cycle;Max_cycle;Signal;HPM_P1;HPM_P2
2022/08/26 00:00:29;;;;;;;9.73;8.90;;;18.20;99.90;;;;;;5062236;28;20434;-77
2022/08/26 00:02:56;;;;;;;9.27;8.57;;;18.10;99.90;;;;;;5051708;28;20860;-78
2022/08/26 00:05:23;;;;;;;9.40;8.60;;;18.10;99.90;;;;;;5057147;28;20241;-78
2022/08/26 00:07:50;;;;;;;9.20;8.50;;;18.10;99.90;;;;;;5042212;28;20903;-78
2022/08/26 00:10:18;;;;;;;9.17;8.47;;;18.10;99.90;;;;;;5059880;28;20195;-78
2022/08/26 00:12:45;;;;;;;9.50;8.60;;;18.00;99.90;;;;;;5044591;28;20223;-78
2022/08/26 00:15:14;;;;;;;9.47;8.67;;;18.00;99.90;;;;;;5047829;28;20689;-78
2022/08/26 00:17:43;;;;;;;9.60;8.80;;;18.00;99.90;;;;;;5047296;28;20609;-79
2022/08/26 00:20:12;;;;;;;9.10;8.40;;;17.90;99.90;;;;;;5039527;28;20192;-78
2022/08/26 00:22:39;;;;;;;9.83;9.07;;;17.90;99.90;;;;;;5065365;28;20215;-78
2022/08/26 00:25:08;;;;;;;9.43;8.73;;;17.90;99.90;;;;;;5068480;28;20201;-78
2022/08/26 00:27:35;;;;;;;9.13;8.43;;;17.90;99.90;;;;;;5060740;28;20326;-78
2022/08/26 00:30:04;;;;;;;9.10;8.40;;;17.90;99.90;;;;;;5067689;28;20198;-78
2022/08/26 00:32:32;;;;;;;9.70;8.97;;;17.80;99.90;;;;;;5064497;28;20218;-78
2022/08/26 00:35:00;;;;;;;9.23;8.43;;;17.80;99.90;;;;;;5060515;28;20288;-78
2022/08/26 00:37:27;;;;;;;9.00;8.30;;;17.80;99.90;;;;;;5050200;28;20194;-78
2022/08/26 00:39:54;;;;;;;9.43;8.73;;;17.80;99.90;;;;;;5059067;28;20200;-78
2022/08/26 00:42:21;;;;;;;10.10;9.20;;;17.70;99.90;;;;;;5047937;28;20702;-79
2022/08/26 00:44:48;;;;;;;9.47;8.77;;;17.70;99.90;;;;;;5065065;28;20687;-78
2022/08/26 00:47:22;;;;;;;9.47;8.57;;;17.70;99.90;;;;;;5065124;28;20629;-78
2022/08/26 00:49:50;;;;;;;9.20;8.50;;;17.70;99.90;;;;;;5065022;28;20203;-79
2022/08/26 00:52:21;;;;;;;8.83;8.13;;;17.60;99.90;;;;;;5042330;28;20226;-78
2022/08/26 00:54:53;;;;;;;9.20;8.50;;;17.60;99.90;;;;;;5068210;28;20202;-78
2022/08/26 00:57:21;;;;;;;9.17;8.47;;;17.60;99.90;;;;;;5046087;28;20260;-78
2022/08/26 00:59:53;;;;;;;9.37;8.57;;;17.50;99.90;;;;;;5061895;28;20196;-78
2022/08/26 01:02:20;;;;;;;9.10;8.30;;;17.60;99.90;;;;;;5045862;28;20227;-78
2022/08/26 01:04:49;;;;;;;8.63;7.93;;;17.60;99.90;;;;;;5046531;28;20230;-78
2022/08/26 01:07:15;;;;;;;8.40;7.70;;;17.60;99.90;;;;;;5064165;28;20679;-78
2022/08/26 01:09:43;;;;;;;9.03;8.33;;;17.60;99.90;;;;;;5046690;28;20551;-78
2022/08/26 01:12:11;;;;;;;8.60;7.90;;;17.60;99.90;;;;;;5049375;28;20214;-78
2022/08/26 01:14:39;;;;;;;9.10;8.40;;;17.60;99.90;;;;;;5042441;28;20553;-77
2022/08/26 01:17:08;;;;;;;8.17;7.57;;;17.60;99.90;;;;;;5043394;28;20612;-78
2022/08/26 01:19:41;;;;;;;9.00;8.20;;;17.60;99.90;;;;;;5043817;28;20203;-78
2022/08/26 01:22:12;;;;;;;8.73;8.03;;;17.50;99.90;;;;;;5045719;28;20775;-78
2022/08/26 01:24:41;;;;;;;9.50;8.70;;;17.50;99.90;;;;;;5062846;28;20195;-78
2022/08/26 01:27:12;;;;;;;9.00;8.30;;;17.40;99.90;;;;;;5067347;28;20714;-78
2022/08/26 01:29:42;;;;;;;9.47;8.63;;;17.40;99.90;;;;;;5041891;28;20206;-78
2022/08/26 01:32:14;;;;;;;9.17;8.37;;;17.40;99.90;;;;;;5061191;28;20753;-78
2022/08/26 01:34:40;;;;;;;8.67;7.97;;;17.40;99.90;;;;;;5041349;28;20216;-78
2022/08/26 01:37:12;;;;;;;9.10;8.40;;;17.40;99.90;;;;;;5059788;28;20202;-78
2022/08/26 01:39:41;;;;;;;8.67;7.97;;;17.40;99.90;;;;;;5046126;28;20206;-78
2022/08/26 01:42:12;;;;;;;8.60;7.90;;;17.40;99.90;;;;;;5044579;28;20218;-78
2022/08/26 01:44:44;;;;;;;8.80;8.10;;;17.40;99.90;;;;;;5043728;28;20227;-78
2022/08/26 01:47:13;;;;;;;9.50;8.80;;;17.40;99.90;;;;;;5055912;28;20242;-78
2022/08/26 01:49:42;;;;;;;9.30;8.50;;;17.30;99.90;;;;;;5063795;28;20219;-78
2022/08/26 01:52:21;;;;;;;10.33;9.40;;;17.30;99.90;;;;;;5062236;28;20272;-79
2022/08/26 01:54:49;;;;;;;9.73;8.93;;;17.20;99.90;;;;;;5046018;28;20614;-78
2022/08/26 01:57:17;;;;;;;9.07;8.37;;;17.20;99.90;;;;;;5063400;28;20200;-78
2022/08/26 01:59:43;;;;;;;9.40;8.70;;;17.10;99.90;;;;;;5060919;28;20194;-78
2022/08/26 02:02:10;;;;;;;9.33;8.53;;;17.10;99.90;;;;;;5054993;28;20214;-77
2022/08/26 02:04:46;;;;;;;9.37;8.57;;;17.10;99.90;;;;;;5045294;28;20453;-78
2022/08/26 02:07:17;;;;;;;9.27;8.57;;;17.10;99.90;;;;;;5054447;28;20652;-78
2022/08/26 02:09:46;;;;;;;9.67;8.87;;;17.00;99.90;;;;;;5060125;28;20187;-78
2022/08/26 02:12:16;;;;;;;10.07;9.27;;;17.00;99.90;;;;;;5047750;28;20226;-78
2022/08/26 02:14:48;;;;;;;10.40;9.50;;;17.00;99.90;;;;;;5040137;28;20675;-78
2022/08/26 02:17:17;;;;;;;10.60;9.77;;;17.00;99.90;;;;;;5052123;28;20666;-78
2022/08/26 02:19:48;;;;;;;9.97;9.07;;;17.00;99.90;;;;;;5058661;28;20202;-78
2022/08/26 02:22:18;;;;;;;10.27;9.37;;;17.00;99.90;;;;;;5052030;28;20241;-78
2022/08/26 02:24:48;;;;;;;11.17;10.37;;;16.90;99.90;;;;;;5058012;28;20253;-77
2022/08/26 02:27:18;;;;;;;10.87;10.03;;;16.90;99.90;;;;;;5065859;28;20194;-78
2022/08/26 02:29:48;;;;;;;10.33;9.53;;;16.80;99.90;;;;;;5063329;28;20206;-78
2022/08/26 02:32:15;;;;;;;10.27;9.47;;;16.80;99.90;;;;;;5045594;28;20222;-78
2022/08/26 02:34:42;;;;;;;10.47;9.67;;;16.80;99.90;;;;;;5038722;28;20206;-78
2022/08/26 02:37:11;;;;;;;9.50;8.80;;;16.80;99.90;;;;;;5049813;28;20687;-78
2022/08/26 02:39:40;;;;;;;10.20;9.47;;;16.80;99.90;;;;;;5062201;28;20202;-78
2022/08/26 02:42:07;;;;;;;10.37;9.57;;;16.80;99.90;;;;;;5061042;28;20267;-78
2022/08/26 02:44:36;;;;;;;10.83;9.80;;;16.80;99.90;;;;;;5043126;28;20198;-78
2022/08/26 02:47:03;;;;;;;11.30;10.30;;;16.80;99.90;;;;;;5063849;28;20661;-78
2022/08/26 02:49:30;;;;;;;11.20;10.30;;;16.70;99.90;;;;;;5062584;28;20195;-78
2022/08/26 02:51:59;;;;;;;10.73;9.90;;;16.70;99.90;;;;;;5062781;28;20744;-78
2022/08/26 02:54:26;;;;;;;11.40;10.47;;;16.60;99.90;;;;;;5062866;28;20194;-79
2022/08/26 02:56:53;;;;;;;11.80;10.87;;;16.60;99.90;;;;;;5066429;28;20195;-78
2022/08/26 02:59:20;;;;;;;11.33;10.43;;;16.60;99.90;;;;;;5039195;28;20197;-78
2022/08/26 03:01:49;;;;;;;10.53;9.73;;;16.60;99.90;;;;;;5059646;28;20283;-78
2022/08/26 03:04:16;;;;;;;10.83;10.03;;;16.60;99.90;;;;;;5044800;28;20310;-78
2022/08/26 03:06:43;;;;;;;10.93;10.03;;;16.60;99.90;;;;;;5059401;28;20710;-77
2022/08/26 03:09:10;;;;;;;10.07;9.30;;;16.60;99.90;;;;;;5033268;28;20222;-77
2022/08/26 03:11:37;;;;;;;10.53;9.63;;;16.60;99.90;;;;;;5041537;28;20203;-76
2022/08/26 03:14:04;;;;;;;10.23;9.43;;;16.60;99.90;;;;;;5059556;28;20252;-77
2022/08/26 03:16:32;;;;;;;10.33;9.53;;;16.60;99.90;;;;;;5065356;28;20195;-77
2022/08/26 03:19:02;;;;;;;10.77;9.87;;;16.60;99.90;;;;;;5048316;28;20301;-76
2022/08/26 03:21:29;;;;;;;11.40;10.40;;;16.60;99.90;;;;;;5055504;28;20199;-77
2022/08/26 03:23:56;;;;;;;10.87;10.03;;;16.60;99.90;;;;;;5048998;28;20222;-76
2022/08/26 03:26:23;;;;;;;10.67;9.87;;;16.60;99.90;;;;;;5060676;28;20213;-77
2022/08/26 03:31:35;;;;;;;10.47;9.67;;;16.60;99.90;;;;;;5038328;28;20342;-76
2022/08/26 03:34:03;;;;;;;11.60;10.60;;;16.60;99.90;;;;;;5062853;28;20262;-77
2022/08/26 03:36:30;;;;;;;10.90;10.00;;;16.60;99.90;;;;;;5065236;28;20656;-77
2022/08/26 03:38:57;;;;;;;10.23;9.33;;;16.50;99.90;;;;;;5056853;28;20261;-76
2022/08/26 03:41:24;;;;;;;11.57;10.57;;;16.50;99.90;;;;;;5050036;28;20203;-76
2022/08/26 03:43:51;;;;;;;11.00;10.10;;;16.50;99.90;;;;;;5031230;28;20270;-76
2022/08/26 03:46:19;;;;;;;11.10;10.27;;;16.50;99.90;;;;;;5029558;28;20248;-76
2022/08/26 03:48:46;;;;;;;11.47;10.57;;;16.50;99.90;;;;;;5054424;28;20245;-77
2022/08/26 03:51:16;;;;;;;11.10;10.20;;;16.50;99.90;;;;;;5055564;28;20243;-76
2022/08/26 03:53:43;;;;;;;11.23;10.33;;;16.50;99.90;;;;;;5064826;28;20650;-77
2022/08/26 03:56:11;;;;;;;10.90;10.10;;;16.40;99.90;;;;;;5033247;28;20252;-76
2022/08/26 03:58:39;;;;;;;11.23;10.33;;;16.40;99.90;;;;;;5067067;28;20224;-76
2022/08/26 04:01:05;;;;;;;12.37;11.47;;;16.40;99.90;;;;;;5048603;28;20206;-76
2022/08/26 04:06:18;;;;;;;11.57;10.67;;;16.40;99.90;;;;;;5056432;28;20191;-76
2022/08/26 04:08:45;;;;;;;11.90;10.83;;;16.30;99.90;;;;;;5063571;28;20616;-76
2022/08/26 04:11:18;;;;;;;11.97;11.07;;;16.30;99.90;;;;;;5034559;28;20207;-76
2022/08/26 04:13:45;;;;;;;11.60;10.70;;;16.30;99.90;;;;;;5038199;28;20230;-77
2022/08/26 04:16:12;;;;;;;11.90;11.00;;;16.30;99.90;;;;;;5050115;28;20232;-77
2022/08/26 04:18:39;;;;;;;11.50;10.60;;;16.30;99.90;;;;;;5046305;28;20254;-77
2022/08/26 04:21:07;;;;;;;11.70;10.80;;;16.30;99.90;;;;;;5066394;28;20686;-78
2022/08/26 04:23:35;;;;;;;11.63;10.57;;;16.40;99.90;;;;;;5064548;28;20714;-78
2022/08/26 04:26:02;;;;;;;11.03;10.13;;;16.40;99.90;;;;;;5065194;28;20259;-77
2022/08/26 04:28:29;;;;;;;11.30;10.40;;;16.40;99.90;;;;;;5055718;28;20264;-80
2022/08/26 04:30:57;;;;;;;11.70;10.80;;;16.50;99.90;;;;;;5052824;28;20244;-78
2022/08/26 04:33:24;;;;;;;12.43;11.43;;;16.50;99.90;;;;;;5057825;28;20799;-78
2022/08/26 04:35:58;;;;;;;12.43;11.20;;;16.50;99.90;;;;;;5061391;28;20218;-80
2022/08/26 04:38:25;;;;;;;11.73;10.83;;;16.40;99.90;;;;;;5045642;28;20191;-78
2022/08/26 04:40:53;;;;;;;12.40;11.40;;;16.40;99.90;;;;;;5062633;28;20630;-77
2022/08/26 04:43:20;;;;;;;12.17;11.17;;;16.40;99.90;;;;;;5041953;28;20268;-79
2022/08/26 04:45:47;;;;;;;12.60;11.30;;;16.30;99.90;;;;;;5049457;28;20198;-77
2022/08/26 04:48:14;;;;;;;12.40;11.40;;;16.30;99.90;;;;;;5064607;28;20209;-77
2022/08/26 04:50:41;;;;;;;11.93;10.97;;;16.30;99.90;;;;;;5063832;28;20226;-77
2022/08/26 04:53:07;;;;;;;12.40;11.37;;;16.30;99.90;;;;;;5066635;28;20225;-77
2022/08/26 04:55:34;;;;;;;12.20;11.23;;;16.30;99.90;;;;;;5044366;28;20211;-77
2022/08/26 04:58:02;;;;;;;13.20;12.20;;;16.40;99.90;;;;;;5066871;28;20202;-77
2022/08/26 05:00:29;;;;;;;11.20;10.37;;;16.40;99.90;;;;;;5048474;28;20255;-77
2022/08/26 05:02:56;;;;;;;11.80;10.80;;;16.30;99.90;;;;;;5066311;28;20244;-77
2022/08/26 05:05:22;;;;;;;12.33;11.40;;;16.40;99.90;;;;;;5065719;28;20203;-77
2022/08/26 05:07:49;;;;;;;10.83;10.03;;;16.40;99.90;;;;;;5043775;28;20262;-77
2022/08/26 05:10:16;;;;;;;11.63;10.73;;;16.50;99.90;;;;;;5062678;28;20256;-77
2022/08/26 05:12:43;;;;;;;11.43;10.63;;;16.50;99.90;;;;;;5060800;28;20222;-77
2022/08/26 05:15:11;;;;;;;11.83;10.93;;;16.60;99.90;;;;;;5067825;28;20187;-77
2022/08/26 05:17:38;;;;;;;11.50;10.50;;;16.60;99.90;;;;;;5047093;28;20195;-77
2022/08/26 05:20:06;;;;;;;10.70;9.90;;;16.60;99.90;;;;;;5049508;28;20248;-77
2022/08/26 05:22:32;;;;;;;11.97;11.07;;;16.70;99.90;;;;;;5059204;28;20215;-77
2022/08/26 05:24:59;;;;;;;12.03;11.13;;;16.70;99.90;;;;;;5066415;28;20191;-77
2022/08/26 05:27:26;;;;;;;12.20;11.30;;;16.80;99.90;;;;;;5063636;28;20850;-78
2022/08/26 05:29:57;;;;;;;6.93;6.27;;;16.80;99.90;;;;;;5056104;28;20215;-78
2022/08/26 05:32:25;;;;;;;8.07;6.57;;;16.80;99.90;;;;;;5038462;28;20215;-80
2022/08/26 05:34:54;;;;;;;8.80;6.53;;;16.90;99.90;;;;;;5057917;28;20263;-78
2022/08/26 05:37:21;;;;;;;9.60;8.90;;;17.00;99.90;;;;;;5064337;28;20556;-78
2022/08/26 05:39:48;;;;;;;11.23;10.43;;;17.00;99.90;;;;;;5048838;28;20232;-78
2022/08/26 05:42:15;;;;;;;8.13;6.37;;;17.10;99.90;;;;;;5063238;28;20218;-79
2022/08/26 05:44:42;;;;;;;8.07;7.27;;;17.10;99.90;;;;;;5055214;28;20199;-78
2022/08/26 05:47:09;;;;;;;9.73;8.83;;;17.10;99.90;;;;;;5053690;28;20223;-79
2022/08/26 05:49:37;;;;;;;6.33;5.73;;;17.10;99.90;;;;;;5046723;28;20432;-78
2022/08/26 05:52:04;;;;;;;6.33;5.73;;;17.10;99.90;;;;;;5045877;28;20242;-78
2022/08/26 05:54:33;;;;;;;6.63;5.97;;;17.10;99.90;;;;;;5069368;28;20194;-79
2022/08/26 05:57:00;;;;;;;6.50;5.73;;;17.10;99.90;;;;;;5065586;28;20194;-78
2022/08/26 05:59:27;;;;;;;6.70;6.00;;;17.10;99.90;;;;;;5063411;28;20258;-78
2022/08/26 06:01:54;;;;;;;11.00;10.20;;;17.20;99.90;;;;;;5066213;28;20213;-78
2022/08/26 06:04:21;;;;;;;7.00;6.30;;;17.20;99.90;;;;;;5063936;28;20222;-78
2022/08/26 06:06:49;;;;;;;6.93;6.23;;;17.20;99.90;;;;;;5050812;28;20675;-78
2022/08/26 06:09:17;;;;;;;6.97;6.37;;;17.20;99.90;;;;;;5064223;28;20265;-79
2022/08/26 06:11:44;;;;;;;7.60;6.90;;;17.40;99.90;;;;;;5046832;28;20210;-80
2022/08/26 06:14:10;;;;;;;10.93;10.13;;;17.50;99.90;;;;;;5067324;28;20667;-78
2022/08/26 06:16:42;;;;;;;11.57;10.77;;;17.60;99.90;;;;;;5048506;28;20202;-77
2022/08/26 06:19:10;;;;;;;7.30;6.60;;;17.80;99.90;;;;;;5028878;28;20231;-78
2022/08/26 06:21:40;;;;;;;6.27;5.77;;;17.90;99.90;;;;;;5041975;28;20207;-77
2022/08/26 06:26:56;;;;;;;6.60;6.00;;;18.30;99.90;;;;;;5041302;28;20215;-78
2022/08/26 06:29:25;;;;;;;7.57;6.83;;;18.50;99.90;;;;;;5042612;28;20208;-77
2022/08/26 06:31:53;;;;;;;11.50;10.70;;;18.70;99.90;;;;;;5037114;28;20253;-78
2022/08/26 06:34:20;;;;;;;8.80;7.47;;;18.80;99.90;;;;;;5019666;28;20204;-78
2022/08/26 06:36:48;;;;;;;10.33;9.63;;;19.00;99.90;;;;;;5020621;28;20213;-78
2022/08/26 06:39:17;;;;;;;7.93;7.23;;;19.20;99.90;;;;;;5020340;28;20655;-78
2022/08/26 06:41:45;;;;;;;8.07;7.47;;;19.40;99.90;;;;;;5037293;28;20194;-78
2022/08/26 06:44:17;;;;;;;11.60;10.80;;;19.40;99.90;;;;;;5036117;28;20196;-78
2022/08/26 06:46:44;;;;;;;9.40;8.70;;;19.60;99.90;;;;;;5036500;28;20208;-76
2022/08/26 06:49:12;;;;;;;6.20;5.43;;;19.70;99.90;;;;;;5021123;28;20773;-78
2022/08/26 06:51:41;;;;;;;5.70;5.00;;;19.80;99.90;;;;;;5038587;28;20298;-78
2022/08/26 06:54:09;;;;;;;5.87;5.27;;;19.90;99.90;;;;;;5038561;28;20704;-77
2022/08/26 06:56:39;;;;;;;5.27;4.77;;;20.00;99.90;;;;;;5038433;28;20202;-78
2022/08/26 06:59:08;;;;;;;6.20;5.70;;;20.20;99.90;;;;;;5039611;28;20202;-77
2022/08/26 07:01:38;;;;;;;9.63;8.90;;;20.40;99.90;;;;;;5039876;28;20191;-78
2022/08/26 07:04:06;;;;;;;8.60;7.90;;;20.40;99.90;;;;;;5020919;28;20275;-78
2022/08/26 07:06:37;;;;;;;9.10;8.40;;;20.50;99.90;;;;;;5019119;28;20203;-77
2022/08/26 07:09:06;;;;;;;10.63;9.93;;;20.70;99.90;;;;;;5021216;28;20216;-78
2022/08/26 07:11:34;;;;;;;10.50;9.80;;;20.80;99.90;;;;;;5042209;28;20203;-78
2022/08/26 07:14:03;;;;;;;11.17;10.37;;;20.90;99.90;;;;;;5037523;28;20191;-78
2022/08/26 07:16:30;;;;;;;9.67;8.87;;;21.00;99.90;;;;;;5037969;28;20597;-78
2022/08/26 07:18:57;;;;;;;11.83;10.93;;;21.10;99.90;;;;;;5039053;28;20683;-78
2022/08/26 07:21:25;;;;;;;9.73;8.93;;;21.40;99.90;;;;;;5019918;28;20254;-78
2022/08/26 07:23:52;;;;;;;10.13;9.40;;;21.70;99.90;;;;;;5037654;28;20216;-78
2022/08/26 07:26:21;;;;;;;5.63;5.00;;;22.00;99.90;;;;;;5021104;28;20270;-78
2022/08/26 07:28:51;;;;;;;9.30;8.60;;;22.40;99.90;;;;;;5038079;28;20254;-78
2022/08/26 07:31:22;;;;;;;10.30;9.50;;;22.70;99.90;;;;;;5034641;28;20216;-79
2022/08/26 07:33:49;;;;;;;5.57;4.90;;;23.10;99.90;;;;;;5018135;28;20228;-78
2022/08/26 07:36:18;;;;;;;8.60;8.00;;;23.40;99.90;;;;;;5045645;28;20222;-78
2022/08/26 07:38:46;;;;;;;6.23;5.63;;;23.70;99.90;;;;;;5054444;28;20249;-79
2022/08/26 07:41:16;;;;;;;5.63;4.57;;;23.70;99.90;;;;;;5033353;28;20260;-78
2022/08/26 07:43:44;;;;;;;8.43;7.77;;;23.70;99.90;;;;;;5035979;28;20731;-79
2022/08/26 07:46:13;;;;;;;7.30;6.70;;;23.80;99.90;;;;;;5032623;28;20556;-79
2022/08/26 07:48:41;;;;;;;7.33;6.57;;;24.00;99.90;;;;;;5035550;28;20206;-79
2022/08/26 07:51:07;;;;;;;10.07;9.27;;;24.20;99.90;;;;;;5018974;28;20268;-79
2022/08/26 07:53:35;;;;;;;9.33;8.70;;;24.40;99.90;;;;;;5020849;28;20248;-79
2022/08/26 07:56:01;;;;;;;7.87;7.17;;;24.80;99.90;;;;;;5036892;28;20262;-79
2022/08/26 07:58:28;;;;;;;9.87;8.87;;;25.10;99.90;;;;;;5017614;28;20200;-79
2022/08/26 08:00:55;;;;;;;9.50;8.73;;;25.50;99.90;;;;;;5038580;28;20199;-79
2022/08/26 08:03:22;;;;;;;9.73;8.80;;;25.70;99.90;;;;;;5042918;28;20216;-78
2022/08/26 08:05:51;;;;;;;9.33;8.43;;;25.90;99.90;;;;;;5039229;28;20294;-79
2022/08/26 08:08:18;;;;;;;5.13;4.43;;;26.20;99.90;;;;;;5039290;28;20219;-79
2022/08/26 08:10:46;;;;;;;7.30;6.70;;;26.70;99.90;;;;;;5023088;28;20738;-79
2022/08/26 08:13:12;;;;;;;9.03;8.37;;;27.00;99.90;;;;;;5036745;28;20692;-81
2022/08/26 08:15:39;;;;;;;5.70;5.10;;;27.30;99.90;;;;;;5016424;28;20196;-81
2022/08/26 08:18:06;;;;;;;5.27;4.77;;;27.60;99.90;;;;;;5050506;28;20203;-76
2022/08/26 08:20:34;;;;;;;9.73;7.63;;;27.80;99.90;;;;;;5057991;28;20245;-76
2022/08/26 08:23:03;;;;;;;8.50;7.80;;;28.00;99.90;;;;;;5060372;28;20220;-76
2022/08/26 08:25:31;;;;;;;9.10;8.23;;;27.90;99.90;;;;;;5041115;28;20672;-76
2022/08/26 08:27:58;;;;;;;9.70;8.90;;;28.10;99.90;;;;;;5037709;28;20332;-76
2022/08/26 08:30:26;;;;;;;9.17;8.57;;;27.70;99.90;;;;;;5049663;28;20256;-76
2022/08/26 08:32:53;;;;;;;9.53;8.73;;;27.30;99.90;;;;;;5054768;28;20222;-76
2022/08/26 08:35:21;;;;;;;8.60;8.00;;;26.90;99.90;;;;;;5048106;28;20233;-76
2022/08/26 08:37:50;;;;;;;8.33;7.53;;;26.90;99.90;;;;;;5043978;28;20629;-76
2022/08/26 08:40:19;;;;;;;4.73;4.33;;;26.80;99.90;;;;;;5064881;28;20186;-76
2022/08/26 08:42:50;;;;;;;5.03;4.53;;;26.80;99.90;;;;;;5044687;28;20223;-76
2022/08/26 08:45:25;;;;;;;4.23;3.80;;;26.70;99.90;;;;;;5052187;28;20195;-77
2022/08/26 08:47:55;;;;;;;6.07;4.67;;;26.90;99.90;;;;;;5040590;28;20689;-76
2022/08/26 08:50:25;;;;;;;5.43;4.20;;;27.50;99.90;;;;;;5034698;28;20711;-76
2022/08/26 08:53:03;;;;;;;5.83;4.70;;;27.70;99.90;;;;;;5057370;28;20280;-76
2022/08/26 08:55:42;;;;;;;7.80;7.17;;;27.80;99.90;;;;;;5065774;28;20275;-76
2022/08/26 08:58:15;;;;;;;6.90;6.40;;;27.50;99.90;;;;;;5060903;28;20203;-76
2022/08/26 09:00:50;;;;;;;7.03;6.33;;;28.00;99.90;;;;;;5061272;28;20191;-76
2022/08/26 09:03:30;;;;;;;6.97;6.37;;;28.00;99.90;;;;;;5055711;28;20221;-77
2022/08/26 09:06:00;;;;;;;6.10;5.40;;;28.00;99.90;;;;;;5055579;28;20261;-78
2022/08/26 09:08:33;;;;;;;6.70;5.73;;;27.90;99.90;;;;;;5063860;28;20191;-77
2022/08/26 09:11:03;;;;;;;7.87;7.17;;;27.70;99.90;;;;;;5035440;28;20289;-77
2022/08/26 09:13:30;;;;;;;5.40;4.90;;;27.40;99.90;;;;;;5063521;28;20405;-77
2022/08/26 09:16:05;;;;;;;5.83;5.33;;;27.60;99.90;;;;;;5042590;28;20196;-77
2022/08/26 09:18:44;;;;;;;7.17;6.67;;;28.00;99.90;;;;;;5049468;28;20658;-77
2022/08/26 09:21:14;;;;;;;8.10;7.37;;;28.30;99.90;;;;;;5054841;28;20186;-77
2022/08/26 09:23:42;;;;;;;8.43;7.83;;;28.50;99.90;;;;;;5065685;28;20223;-77
2022/08/26 09:26:17;;;;;;;8.30;7.70;;;28.50;99.90;;;;;;5066647;28;20194;-81
2022/08/26 09:28:47;;;;;;;8.43;7.83;;;28.80;99.90;;;;;;5033769;28;20203;-77
2022/08/26 09:31:21;;;;;;;8.83;8.23;;;29.50;99.90;;;;;;5051377;28;20640;-78
2022/08/26 09:33:48;;;;;;;9.50;8.77;;;29.90;99.90;;;;;;5060459;28;20222;-77
2022/08/26 09:36:21;;;;;;;9.67;8.87;;;30.20;99.90;;;;;;5052008;28;20199;-77
2022/08/26 09:38:49;;;;;;;8.00;7.30;;;30.40;99.90;;;;;;5063258;28;20187;-77
2022/08/26 09:41:30;;;;;;;8.00;7.40;;;30.60;99.90;;;;;;5049542;28;20199;-77
2022/08/26 09:44:16;;;;;;;9.50;8.50;;;30.80;99.90;;;;;;5045603;28;20214;-77
2022/08/26 09:46:54;;;;;;;10.17;9.27;;;31.00;99.90;;;;;;5047504;28;20202;-78
2022/08/26 09:49:25;;;;;;;9.43;8.53;;;31.00;99.90;;;;;;5056659;28;20206;-78
2022/08/26 09:52:12;;;;;;;7.60;6.90;;;30.80;99.90;;;;;;5066199;28;20237;-77
2022/08/26 09:54:40;;;;;;;9.40;8.70;;;30.90;99.90;;;;;;5062084;28;20675;-77
2022/08/26 09:57:18;;;;;;;8.20;7.50;;;30.90;99.90;;;;;;5053502;28;20200;-77
2022/08/26 09:59:46;;;;;;;9.40;8.57;;;30.80;99.90;;;;;;5050115;28;20195;-81
2022/08/26 10:02:35;;;;;;;9.33;8.50;;;30.80;99.90;;;;;;5061935;28;20805;-78
2022/08/26 10:05:06;;;;;;;8.10;7.40;;;30.90;99.90;;;;;;5051452;28;20188;-77
2022/08/26 10:07:40;;;;;;;9.27;8.57;;;30.80;99.90;;;;;;5051465;28;20279;-77
2022/08/26 10:10:12;;;;;;;9.47;8.70;;;30.90;99.90;;;;;;5054132;28;20230;-78
2022/08/26 10:12:50;;;;;;;9.37;8.57;;;30.80;99.90;;;;;;5038572;28;20215;-77
2022/08/26 10:15:20;;;;;;;9.37;8.57;;;30.70;99.90;;;;;;5040793;28;20207;-77
2022/08/26 10:17:51;;;;;;;9.23;8.43;;;30.60;99.90;;;;;;5033351;28;20203;-77
2022/08/26 10:20:23;;;;;;;9.40;8.70;;;30.60;99.90;;;;;;5056754;28;20694;-77
2022/08/26 10:22:55;;;;;;;9.07;8.37;;;30.40;99.90;;;;;;5062182;28;20245;-77
2022/08/26 10:25:27;;;;;;;8.97;8.20;;;30.40;99.90;;;;;;5037991;28;20241;-77
2022/08/26 10:28:07;;;;;;;8.67;8.07;;;30.20;99.90;;;;;;5058079;28;20205;-78
2022/08/26 10:30:39;;;;;;;8.87;8.17;;;30.40;99.90;;;;;;5061528;28;20272;-77
2022/08/26 10:33:08;;;;;;;8.40;7.80;;;30.40;99.90;;;;;;5044681;28;20277;-77
2022/08/26 10:35:37;;;;;;;6.80;6.30;;;30.60;99.90;;;;;;5036030;28;20203;-77
2022/08/26 10:38:10;;;;;;;8.57;7.67;;;30.40;99.90;;;;;;5060905;28;20249;-77
2022/08/26 10:40:49;;;;;;;8.47;7.83;;;30.10;99.90;;;;;;5046000;28;20191;-77
2022/08/26 10:43:23;;;;;;;9.10;8.40;;;29.70;99.90;;;;;;5058512;28;20210;-77
2022/08/26 10:45:52;;;;;;;8.97;8.27;;;29.80;99.90;;;;;;5036384;28;20200;-77
2022/08/26 10:48:27;;;;;;;9.57;8.87;;;30.00;99.90;;;;;;5063180;28;20761;-77
2022/08/26 10:50:57;;;;;;;10.33;9.37;;;29.80;99.90;;;;;;5065153;28;20279;-77
2022/08/26 10:53:31;;;;;;;9.07;5.83;;;29.50;99.90;;;;;;5020760;28;20718;-77
2022/08/26 10:56:05;;;;;;;8.03;7.23;;;29.30;99.90;;;;;;5046342;28;20260;-77
2022/08/26 10:58:49;;;;;;;9.97;8.97;;;29.20;99.90;;;;;;5040480;28;20235;-77
2022/08/26 11:04:27;;;;;;;14.23;6.30;;;29.40;99.90;;;;;;5038489;28;20184;-77
2022/08/26 11:07:27;;;;;;;7.40;6.40;;;29.30;99.90;;;;;;5041260;28;20726;-77
2022/08/26 11:09:54;;;;;;;10.03;9.13;;;29.20;99.90;;;;;;5029340;28;20287;-77
2022/08/26 11:12:48;;;;;;;9.67;6.13;;;28.90;99.90;;;;;;5029326;28;20589;-77
2022/08/26 11:15:57;;;;;;;9.03;8.20;;;29.00;99.90;;;;;;5027342;28;20228;-79
2022/08/26 11:18:40;;;;;;;6.70;5.57;;;29.00;99.90;;;;;;5050670;28;20626;-79
2022/08/26 11:21:45;;;;;;;6.40;5.57;;;29.00;99.90;;;;;;5035226;28;20199;-85
2022/08/26 11:24:45;;;;;;;9.70;8.70;;;29.20;99.90;;;;;;5047617;28;20264;-79
2022/08/26 11:27:53;;;;;;;9.90;8.90;;;29.30;99.90;;;;;;5021927;28;20266;-80
2022/08/26 11:30:46;;;;;;;9.50;8.60;;;29.10;99.90;;;;;;5043671;28;20632;-78
2022/08/26 11:33:45;;;;;;;8.83;8.03;;;29.10;99.90;;;;;;5033703;28;20219;-79
2022/08/26 11:36:39;;;;;;;10.23;8.53;;;29.20;99.90;;;;;;5046532;28;20618;-79
2022/08/26 11:39:16;;;;;;;9.20;8.33;;;29.40;99.90;;;;;;5049629;28;20191;-79
2022/08/26 11:41:44;;;;;;;9.40;8.43;;;29.60;99.90;;;;;;5024003;28;20195;-79
2022/08/26 11:44:15;;;;;;;10.53;8.27;;;29.70;99.90;;;;;;5045496;28;20241;-79
2022/08/26 11:46:52;;;;;;;9.40;8.07;;;29.60;99.60;;;;;;5039084;28;20199;-79
2022/08/26 11:49:19;;;;;;;9.43;8.50;;;29.60;99.90;;;;;;5051439;28;20198;-79
2022/08/26 11:51:46;;;;;;;9.33;8.43;;;29.50;99.90;;;;;;5052790;28;20207;-79
2022/08/26 11:54:14;;;;;;;9.03;8.23;;;29.60;99.90;;;;;;5053372;28;20249;-79
2022/08/26 11:56:44;;;;;;;9.00;7.97;;;29.70;99.20;;;;;;5069043;28;20200;-78
2022/08/26 11:59:22;;;;;;;8.73;8.00;;;29.80;99.50;;;;;;5040528;28;20199;-79
2022/08/26 12:01:53;;;;;;;7.70;7.10;;;30.00;98.90;;;;;;5069224;28;20594;-79
2022/08/26 12:04:27;;;;;;;8.60;7.73;;;30.10;99.40;;;;;;5040663;28;20268;-79
2022/08/26 12:06:55;;;;;;;8.90;8.00;;;30.10;98.20;;;;;;5032865;28;20683;-79
2022/08/26 12:09:24;;;;;;;8.50;7.80;;;30.00;98.60;;;;;;5035514;28;20268;-79
2022/08/26 12:11:52;;;;;;;9.87;8.30;;;30.00;98.70;;;;;;5039005;28;20715;-79
2022/08/26 12:14:23;;;;;;;9.00;7.63;;;30.00;98.60;;;;;;5048595;28;20224;-79
2022/08/26 12:16:52;;;;;;;7.67;6.17;;;29.90;98.30;;;;;;5068075;28;20728;-79
2022/08/26 12:19:28;;;;;;;5.63;4.33;;;30.00;97.70;;;;;;5047000;28;20230;-81
2022/08/26 12:22:00;;;;;;;6.30;4.87;;;29.90;98.20;;;;;;5058603;28;20220;-80
2022/08/26 12:24:27;;;;;;;5.73;4.63;;;30.00;97.60;;;;;;5057449;28;20203;-79
2022/08/26 12:27:14;;;;;;;4.90;4.37;;;29.80;96.60;;;;;;5051962;28;20614;-80
2022/08/26 12:29:41;;;;;;;5.77;4.10;;;29.90;96.50;;;;;;5062038;28;20207;-80
2022/08/26 12:32:12;;;;;;;4.10;3.70;;;30.00;97.00;;;;;;5038451;28;20246;-78
2022/08/26 12:34:40;;;;;;;5.60;4.27;;;30.20;96.90;;;;;;5034211;28;20629;-81
2022/08/26 12:37:09;;;;;;;5.63;4.43;;;30.10;95.80;;;;;;5057093;28;20203;-78
2022/08/26 12:39:38;;;;;;;5.87;4.93;;;30.00;96.10;;;;;;5066288;28;20194;-78
2022/08/26 12:42:22;;;;;;;5.80;4.63;;;30.00;96.90;;;;;;5066636;28;20241;-78
2022/08/26 12:44:50;;;;;;;7.83;4.60;;;30.00;96.10;;;;;;5073394;28;20198;-77
2022/08/26 12:47:24;;;;;;;6.70;4.37;;;30.00;96.00;;;;;;5032460;28;20211;-77
2022/08/26 12:50:00;;;;;;;6.63;4.57;;;30.00;96.30;;;;;;5049114;28;20257;-78
2022/08/26 12:52:30;;;;;;;7.93;4.50;;;29.80;96.50;;;;;;5046526;28;20264;-77
2022/08/26 12:54:59;;;;;;;7.80;5.00;;;29.90;96.60;;;;;;5064294;28;20535;-78
2022/08/26 12:57:28;;;;;;;5.27;4.37;;;30.00;96.50;;;;;;5070018;28;20253;-77
2022/08/26 13:00:10;;;;;;;5.37;4.83;;;30.10;96.50;;;;;;5068056;28;20206;-78
2022/08/26 13:02:39;;;;;;;6.07;4.73;;;30.00;96.40;;;;;;5065350;28;20222;-78
2022/08/26 13:05:06;;;;;;;7.13;4.50;;;30.00;97.10;;;;;;5060964;28;20198;-78
2022/08/26 13:07:35;;;;;;;5.77;4.00;;;30.00;97.70;;;;;;5050693;28;20207;-77